El Turbio, Argentina
Current Conditions -  °F | °C
As of 4:00 AM on Friday 28 Nov 2014 (Local Time) from SCCI Reporting Station
Scattered Clouds Scattered Clouds  
Wind Chill: 38°   Ceiling: Unl
Heat Index: 45°   Visibility: 6mi
Dew Point: 39°   Wind: 13mph
Humidity: 81%   Direction: 270°W
Pressure: 29.44"   Gusts: NA
Location:  51.61°S, 72.19°W
Report Text: SCCI 280700Z 27011KT 9999 SCT030 07/04 Q0997 NOSIG
Loading
Personal Weather Stations






























Interactive Weather Map New forecast layout! Learn more

10-Day Weather Forecast

Advertisements
Track Severe Weather on mobile